sensor_id;sensor_type;location;lat;lon;timestamp;P1;durP1;ratioP1;P2;durP2;ratioP2
72373;SDS011;60349;64.132;-21.820;2023-03-14T00:00:08;5.38;;;2.20;;
72373;SDS011;60349;64.132;-21.820;2023-03-14T00:02:35;5.13;;;2.92;;
72373;SDS011;60349;64.132;-21.820;2023-03-14T00:05:02;4.35;;;2.65;;
72373;SDS011;60349;64.132;-21.820;2023-03-14T00:07:32;8.02;;;2.92;;
72373;SDS011;60349;64.132;-21.820;2023-03-14T00:10:00;4.40;;;2.80;;
72373;SDS011;60349;64.132;-21.820;2023-03-14T00:12:27;8.00;;;3.15;;
72373;SDS011;60349;64.132;-21.820;2023-03-14T00:14:53;4.43;;;2.35;;
72373;SDS011;60349;64.132;-21.820;2023-03-14T00:17:19;5.53;;;2.60;;
72373;SDS011;60349;64.132;-21.820;2023-03-14T00:19:45;5.10;;;2.30;;
72373;SDS011;60349;64.132;-21.820;2023-03-14T00:22:11;7.72;;;2.15;;
72373;SDS011;60349;64.132;-21.820;2023-03-14T00:24:37;4.18;;;1.73;;
72373;SDS011;60349;64.132;-21.820;2023-03-14T00:27:03;3.33;;;1.60;;
72373;SDS011;60349;64.132;-21.820;2023-03-14T00:29:29;6.47;;;2.03;;
72373;SDS011;60349;64.132;-21.820;2023-03-14T00:31:56;4.00;;;2.05;;
72373;SDS011;60349;64.132;-21.820;2023-03-14T00:34:22;5.68;;;1.92;;
72373;SDS011;60349;64.132;-21.820;2023-03-14T00:36:48;4.10;;;1.52;;
72373;SDS011;60349;64.132;-21.820;2023-03-14T00:39:14;4.13;;;1.63;;
72373;SDS011;60349;64.132;-21.820;2023-03-14T00:41:40;7.25;;;2.85;;
72373;SDS011;60349;64.132;-21.820;2023-03-14T00:44:06;4.07;;;2.28;;
72373;SDS011;60349;64.132;-21.820;2023-03-14T00:46:32;4.43;;;1.55;;
72373;SDS011;60349;64.132;-21.820;2023-03-14T00:48:58;7.07;;;3.05;;
72373;SDS011;60349;64.132;-21.820;2023-03-14T00:51:24;5.90;;;2.50;;
72373;SDS011;60349;64.132;-21.820;2023-03-14T00:53:50;4.25;;;2.50;;
72373;SDS011;60349;64.132;-21.820;2023-03-14T00:56:17;5.68;;;3.03;;
72373;SDS011;60349;64.132;-21.820;2023-03-14T00:58:43;8.40;;;3.92;;
72373;SDS011;60349;64.132;-21.820;2023-03-14T01:01:10;18.35;;;11.55;;
72373;SDS011;60349;64.132;-21.820;2023-03-14T01:03:36;26.08;;;15.13;;
72373;SDS011;60349;64.132;-21.820;2023-03-14T01:08:35;29.65;;;18.73;;
72373;SDS011;60349;64.132;-21.820;2023-03-14T01:11:04;28.90;;;15.68;;
72373;SDS011;60349;64.132;-21.820;2023-03-14T01:13:31;29.67;;;14.50;;
72373;SDS011;60349;64.132;-21.820;2023-03-14T01:16:00;24.65;;;14.50;;
72373;SDS011;60349;64.132;-21.820;2023-03-14T01:18:27;21.95;;;14.25;;
72373;SDS011;60349;64.132;-21.820;2023-03-14T01:20:53;18.05;;;11.65;;
72373;SDS011;60349;64.132;-21.820;2023-03-14T01:23:19;20.45;;;11.90;;
72373;SDS011;60349;64.132;-21.820;2023-03-14T01:25:45;17.88;;;10.20;;
72373;SDS011;60349;64.132;-21.820;2023-03-14T01:28:11;16.70;;;10.00;;
72373;SDS011;60349;64.132;-21.820;2023-03-14T01:30:37;16.50;;;9.88;;
72373;SDS011;60349;64.132;-21.820;2023-03-14T01:33:03;15.70;;;8.80;;
72373;SDS011;60349;64.132;-21.820;2023-03-14T01:35:29;15.65;;;8.13;;
72373;SDS011;60349;64.132;-21.820;2023-03-14T01:37:55;11.35;;;7.45;;
72373;SDS011;60349;64.132;-21.820;2023-03-14T01:40:21;17.08;;;6.82;;
72373;SDS011;60349;64.132;-21.820;2023-03-14T01:42:57;10.35;;;6.82;;
72373;SDS011;60349;64.132;-21.820;2023-03-14T01:48:08;11.13;;;6.03;;
72373;SDS011;60349;64.132;-21.820;2023-03-14T01:50:34;12.55;;;6.22;;
72373;SDS011;60349;64.132;-21.820;2023-03-14T01:53:01;9.90;;;6.18;;
72373;SDS011;60349;64.132;-21.820;2023-03-14T01:55:27;15.30;;;5.35;;
72373;SDS011;60349;64.132;-21.820;2023-03-14T01:57:54;10.40;;;6.03;;
72373;SDS011;60349;64.132;-21.820;2023-03-14T02:00:22;10.90;;;6.07;;
72373;SDS011;60349;64.132;-21.820;2023-03-14T02:02:56;10.70;;;5.97;;
72373;SDS011;60349;64.132;-21.820;2023-03-14T02:05:23;10.70;;;5.53;;
72373;SDS011;60349;64.132;-21.820;2023-03-14T02:07:52;10.35;;;5.78;;
72373;SDS011;60349;64.132;-21.820;2023-03-14T02:10:20;7.60;;;4.45;;
72373;SDS011;60349;64.132;-21.820;2023-03-14T02:12:47;8.13;;;4.75;;
72373;SDS011;60349;64.132;-21.820;2023-03-14T02:15:13;10.07;;;5.55;;
72373;SDS011;60349;64.132;-21.820;2023-03-14T02:17:40;8.73;;;5.32;;
72373;SDS011;60349;64.132;-21.820;2023-03-14T02:22:49;6.53;;;4.55;;
72373;SDS011;60349;64.132;-21.820;2023-03-14T02:27:44;7.55;;;4.45;;
72373;SDS011;60349;64.132;-21.820;2023-03-14T02:30:11;5.95;;;4.13;;
72373;SDS011;60349;64.132;-21.820;2023-03-14T02:32:40;5.45;;;3.80;;
72373;SDS011;60349;64.132;-21.820;2023-03-14T02:35:08;6.68;;;4.18;;
72373;SDS011;60349;64.132;-21.820;2023-03-14T02:37:37;5.80;;;3.70;;
72373;SDS011;60349;64.132;-21.820;2023-03-14T02:40:04;6.65;;;3.80;;
72373;SDS011;60349;64.132;-21.820;2023-03-14T02:42:31;5.05;;;3.33;;
72373;SDS011;60349;64.132;-21.820;2023-03-14T02:47:28;6.70;;;3.38;;
72373;SDS011;60349;64.132;-21.820;2023-03-14T02:49:57;4.55;;;2.95;;
72373;SDS011;60349;64.132;-21.820;2023-03-14T02:52:25;5.38;;;3.42;;
72373;SDS011;60349;64.132;-21.820;2023-03-14T02:54:51;8.50;;;3.45;;
72373;SDS011;60349;64.132;-21.820;2023-03-14T02:57:17;5.00;;;3.00;;
72373;SDS011;60349;64.132;-21.820;2023-03-14T02:59:43;7.57;;;3.35;;
72373;SDS011;60349;64.132;-21.820;2023-03-14T03:02:09;4.55;;;2.80;;
72373;SDS011;60349;64.132;-21.820;2023-03-14T03:04:35;4.85;;;2.70;;
72373;SDS011;60349;64.132;-21.820;2023-03-14T03:07:02;5.28;;;3.08;;
72373;SDS011;60349;64.132;-21.820;2023-03-14T03:09:28;7.80;;;3.40;;
72373;SDS011;60349;64.132;-21.820;2023-03-14T03:11:54;7.28;;;3.60;;
72373;SDS011;60349;64.132;-21.820;2023-03-14T03:14:20;5.55;;;3.72;;
72373;SDS011;60349;64.132;-21.820;2023-03-14T03:16:46;8.68;;;3.35;;
72373;SDS011;60349;64.132;-21.820;2023-03-14T03:19:12;6.05;;;4.00;;
72373;SDS011;60349;64.132;-21.820;2023-03-14T03:21:39;4.82;;;3.42;;
72373;SDS011;60349;64.132;-21.820;2023-03-14T03:24:05;6.05;;;4.03;;
72373;SDS011;60349;64.132;-21.820;2023-03-14T03:26:33;6.53;;;3.63;;
72373;SDS011;60349;64.132;-21.820;2023-03-14T03:28:59;5.82;;;4.03;;
72373;SDS011;60349;64.132;-21.820;2023-03-14T03:31:25;5.68;;;3.83;;
72373;SDS011;60349;64.132;-21.820;2023-03-14T03:33:51;9.55;;;3.53;;
72373;SDS011;60349;64.132;-21.820;2023-03-14T03:36:21;7.10;;;3.95;;
72373;SDS011;60349;64.132;-21.820;2023-03-14T03:38:47;5.05;;;3.38;;
72373;SDS011;60349;64.132;-21.820;2023-03-14T03:41:13;9.35;;;3.28;;
72373;SDS011;60349;64.132;-21.820;2023-03-14T03:43:40;6.05;;;3.60;;
72373;SDS011;60349;64.132;-21.820;2023-03-14T03:46:06;5.38;;;3.35;;
72373;SDS011;60349;64.132;-21.820;2023-03-14T03:48:32;5.03;;;2.67;;
72373;SDS011;60349;64.132;-21.820;2023-03-14T03:50:58;10.13;;;2.95;;
72373;SDS011;60349;64.132;-21.820;2023-03-14T03:53:24;6.32;;;2.85;;
72373;SDS011;60349;64.132;-21.820;2023-03-14T03:55:51;5.82;;;3.17;;
72373;SDS011;60349;64.132;-21.820;2023-03-14T03:58:17;4.22;;;3.53;;
72373;SDS011;60349;64.132;-21.820;2023-03-14T04:00:43;5.95;;;3.42;;
72373;SDS011;60349;64.132;-21.820;2023-03-14T04:03:09;4.93;;;3.15;;
72373;SDS011;60349;64.132;-21.820;2023-03-14T04:05:35;5.22;;;3.28;;
72373;SDS011;60349;64.132;-21.820;2023-03-14T04:08:02;6.40;;;3.53;;
72373;SDS011;60349;64.132;-21.820;2023-03-14T04:10:28;4.13;;;2.78;;
72373;SDS011;60349;64.132;-21.820;2023-03-14T04:12:54;6.18;;;3.40;;
72373;SDS011;60349;64.132;-21.820;2023-03-14T04:15:21;6.78;;;4.22;;
72373;SDS011;60349;64.132;-21.820;2023-03-14T04:17:47;6.30;;;4.28;;
72373;SDS011;60349;64.132;-21.820;2023-03-14T04:20:13;6.03;;;4.32;;
72373;SDS011;60349;64.132;-21.820;2023-03-14T04:22:39;6.68;;;4.10;;
72373;SDS011;60349;64.132;-21.820;2023-03-14T04:25:05;7.00;;;4.15;;
72373;SDS011;60349;64.132;-21.820;2023-03-14T04:27:32;6.07;;;4.50;;
72373;SDS011;60349;64.132;-21.820;2023-03-14T04:29:58;6.78;;;4.07;;
72373;SDS011;60349;64.132;-21.820;2023-03-14T04:32:24;5.57;;;3.92;;
72373;SDS011;60349;64.132;-21.820;2023-03-14T04:34:51;16.05;;;4.25;;
72373;SDS011;60349;64.132;-21.820;2023-03-14T04:37:17;5.60;;;3.95;;
72373;SDS011;60349;64.132;-21.820;2023-03-14T04:39:43;7.68;;;3.65;;
72373;SDS011;60349;64.132;-21.820;2023-03-14T04:42:09;5.63;;;3.53;;
72373;SDS011;60349;64.132;-21.820;2023-03-14T04:44:35;5.07;;;3.33;;
72373;SDS011;60349;64.132;-21.820;2023-03-14T04:47:01;7.57;;;3.63;;
72373;SDS011;60349;64.132;-21.820;2023-03-14T04:49:27;5.57;;;4.00;;
72373;SDS011;60349;64.132;-21.820;2023-03-14T04:51:53;7.57;;;4.40;;
72373;SDS011;60349;64.132;-21.820;2023-03-14T04:54:20;6.10;;;3.58;;
72373;SDS011;60349;64.132;-21.820;2023-03-14T04:56:46;5.82;;;3.50;;
72373;SDS011;60349;64.132;-21.820;2023-03-14T04:59:12;7.38;;;3.30;;
72373;SDS011;60349;64.132;-21.820;2023-03-14T05:01:38;4.97;;;3.00;;
72373;SDS011;60349;64.132;-21.820;2023-03-14T05:04:06;5.30;;;4.13;;
72373;SDS011;60349;64.132;-21.820;2023-03-14T05:06:32;5.75;;;3.38;;
72373;SDS011;60349;64.132;-21.820;2023-03-14T05:08:58;4.68;;;3.40;;
72373;SDS011;60349;64.132;-21.820;2023-03-14T05:11:24;4.40;;;2.88;;
72373;SDS011;60349;64.132;-21.820;2023-03-14T05:13:51;6.47;;;4.00;;
72373;SDS011;60349;64.132;-21.820;2023-03-14T05:16:17;5.18;;;3.15;;
72373;SDS011;60349;64.132;-21.820;2023-03-14T05:18:43;5.88;;;3.13;;
72373;SDS011;60349;64.132;-21.820;2023-03-14T05:21:09;4.70;;;3.50;;
72373;SDS011;60349;64.132;-21.820;2023-03-14T05:23:35;5.07;;;3.35;;
72373;SDS011;60349;64.132;-21.820;2023-03-14T05:26:01;5.68;;;3.53;;
72373;SDS011;60349;64.132;-21.820;2023-03-14T05:28:28;7.65;;;4.07;;
72373;SDS011;60349;64.132;-21.820;2023-03-14T05:30:54;8.55;;;3.65;;
72373;SDS011;60349;64.132;-21.820;2023-03-14T05:33:20;6.13;;;4.22;;
72373;SDS011;60349;64.132;-21.820;2023-03-14T05:35:46;5.03;;;3.72;;
72373;SDS011;60349;64.132;-21.820;2023-03-14T05:38:13;5.35;;;3.10;;
72373;SDS011;60349;64.132;-21.820;2023-03-14T05:40:39;5.32;;;3.17;;
72373;SDS011;60349;64.132;-21.820;2023-03-14T05:43:05;5.28;;;3.13;;
72373;SDS011;60349;64.132;-21.820;2023-03-14T05:45:33;13.40;;;3.08;;
72373;SDS011;60349;64.132;-21.820;2023-03-14T05:47:59;6.50;;;2.53;;
72373;SDS011;60349;64.132;-21.820;2023-03-14T05:50:26;9.55;;;2.67;;
72373;SDS011;60349;64.132;-21.820;2023-03-14T05:52:52;6.38;;;2.97;;
72373;SDS011;60349;64.132;-21.820;2023-03-14T05:55:18;4.35;;;2.50;;
72373;SDS011;60349;64.132;-21.820;2023-03-14T05:57:44;7.70;;;3.25;;
72373;SDS011;60349;64.132;-21.820;2023-03-14T06:00:10;5.72;;;2.85;;
72373;SDS011;60349;64.132;-21.820;2023-03-14T06:02:36;4.82;;;2.67;;
72373;SDS011;60349;64.132;-21.820;2023-03-14T06:05:02;4.13;;;2.60;;
72373;SDS011;60349;64.132;-21.820;2023-03-14T06:07:29;6.72;;;2.55;;
72373;SDS011;60349;64.132;-21.820;2023-03-14T06:09:55;4.10;;;2.70;;
72373;SDS011;60349;64.132;-21.820;2023-03-14T06:12:21;5.70;;;2.67;;
72373;SDS011;60349;64.132;-21.820;2023-03-14T06:14:47;6.00;;;2.97;;
72373;SDS011;60349;64.132;-21.820;2023-03-14T06:17:13;10.30;;;2.92;;
72373;SDS011;60349;64.132;-21.820;2023-03-14T06:19:40;5.18;;;2.72;;
72373;SDS011;60349;64.132;-21.820;2023-03-14T06:22:06;4.80;;;3.53;;
72373;SDS011;60349;64.132;-21.820;2023-03-14T06:24:32;5.18;;;3.00;;
72373;SDS011;60349;64.132;-21.820;2023-03-14T06:26:58;5.88;;;2.47;;
72373;SDS011;60349;64.132;-21.820;2023-03-14T06:29:24;4.90;;;3.13;;
72373;SDS011;60349;64.132;-21.820;2023-03-14T06:31:51;5.38;;;2.75;;
72373;SDS011;60349;64.132;-21.820;2023-03-14T06:34:17;4.32;;;2.75;;
72373;SDS011;60349;64.132;-21.820;2023-03-14T06:36:43;5.68;;;3.63;;
72373;SDS011;60349;64.132;-21.820;2023-03-14T06:39:09;6.15;;;3.65;;
72373;SDS011;60349;64.132;-21.820;2023-03-14T06:41:35;7.43;;;3.83;;
72373;SDS011;60349;64.132;-21.820;2023-03-14T06:44:01;4.25;;;2.75;;
72373;SDS011;60349;64.132;-21.820;2023-03-14T06:46:27;7.25;;;3.28;;
72373;SDS011;60349;64.132;-21.820;2023-03-14T06:48:53;5.50;;;2.95;;
72373;SDS011;60349;64.132;-21.820;2023-03-14T06:51:19;4.35;;;2.55;;
72373;SDS011;60349;64.132;-21.820;2023-03-14T06:53:45;7.55;;;2.50;;
72373;SDS011;60349;64.132;-21.820;2023-03-14T06:56:12;5.65;;;3.40;;
72373;SDS011;60349;64.132;-21.820;2023-03-14T06:58:38;4.10;;;2.45;;
72373;SDS011;60349;64.132;-21.820;2023-03-14T07:01:04;4.15;;;2.90;;
72373;SDS011;60349;64.132;-21.820;2023-03-14T07:03:30;5.15;;;2.35;;
72373;SDS011;60349;64.132;-21.820;2023-03-14T07:05:57;3.70;;;1.90;;
72373;SDS011;60349;64.132;-21.820;2023-03-14T07:08:24;5.15;;;2.33;;
72373;SDS011;60349;64.132;-21.820;2023-03-14T07:10:50;6.22;;;2.47;;
72373;SDS011;60349;64.132;-21.820;2023-03-14T07:13:16;5.20;;;2.30;;
72373;SDS011;60349;64.132;-21.820;2023-03-14T07:15:43;3.95;;;2.28;;
72373;SDS011;60349;64.132;-21.820;2023-03-14T07:18:09;3.90;;;1.90;;
72373;SDS011;60349;64.132;-21.820;2023-03-14T07:20:35;5.55;;;2.88;;
72373;SDS011;60349;64.132;-21.820;2023-03-14T07:23:01;4.97;;;2.42;;
72373;SDS011;60349;64.132;-21.820;2023-03-14T07:25:28;7.22;;;3.20;;
72373;SDS011;60349;64.132;-21.820;2023-03-14T07:27:54;4.80;;;2.38;;
72373;SDS011;60349;64.132;-21.820;2023-03-14T07:30:20;4.85;;;2.40;;
72373;SDS011;60349;64.132;-21.820;2023-03-14T07:32:46;6.70;;;2.83;;
72373;SDS011;60349;64.132;-21.820;2023-03-14T07:35:12;5.45;;;3.15;;
72373;SDS011;60349;64.132;-21.820;2023-03-14T07:37:39;3.28;;;2.45;;
72373;SDS011;60349;64.132;-21.820;2023-03-14T07:40:05;6.15;;;3.08;;
72373;SDS011;60349;64.132;-21.820;2023-03-14T07:42:32;4.40;;;2.72;;
72373;SDS011;60349;64.132;-21.820;2023-03-14T07:44:58;5.90;;;3.40;;
72373;SDS011;60349;64.132;-21.820;2023-03-14T07:47:24;5.43;;;2.55;;
72373;SDS011;60349;64.132;-21.820;2023-03-14T07:49:50;6.30;;;2.92;;
72373;SDS011;60349;64.132;-21.820;2023-03-14T07:52:16;5.55;;;2.28;;
72373;SDS011;60349;64.132;-21.820;2023-03-14T07:54:42;5.18;;;2.42;;
72373;SDS011;60349;64.132;-21.820;2023-03-14T07:57:08;7.63;;;2.17;;
72373;SDS011;60349;64.132;-21.820;2023-03-14T07:59:35;6.32;;;2.38;;
72373;SDS011;60349;64.132;-21.820;2023-03-14T08:02:01;4.78;;;3.03;;
72373;SDS011;60349;64.132;-21.820;2023-03-14T08:04:30;8.00;;;2.28;;
72373;SDS011;60349;64.132;-21.820;2023-03-14T08:06:56;3.92;;;2.30;;
72373;SDS011;60349;64.132;-21.820;2023-03-14T08:09:22;4.40;;;2.20;;
72373;SDS011;60349;64.132;-21.820;2023-03-14T08:11:48;4.85;;;2.05;;
72373;SDS011;60349;64.132;-21.820;2023-03-14T08:14:14;3.78;;;2.10;;
72373;SDS011;60349;64.132;-21.820;2023-03-14T08:16:40;6.68;;;1.83;;
72373;SDS011;60349;64.132;-21.820;2023-03-14T08:19:06;5.55;;;2.08;;
72373;SDS011;60349;64.132;-21.820;2023-03-14T08:21:32;4.13;;;2.80;;
72373;SDS011;60349;64.132;-21.820;2023-03-14T08:23:58;5.43;;;2.33;;
72373;SDS011;60349;64.132;-21.820;2023-03-14T08:26:25;5.20;;;2.08;;
72373;SDS011;60349;64.132;-21.820;2023-03-14T08:28:51;5.38;;;2.72;;
72373;SDS011;60349;64.132;-21.820;2023-03-14T08:31:17;5.35;;;2.95;;
72373;SDS011;60349;64.132;-21.820;2023-03-14T08:33:43;5.93;;;2.78;;
72373;SDS011;60349;64.132;-21.820;2023-03-14T08:36:10;6.80;;;3.08;;
72373;SDS011;60349;64.132;-21.820;2023-03-14T08:38:36;5.97;;;2.92;;
72373;SDS011;60349;64.132;-21.820;2023-03-14T08:41:02;7.10;;;2.22;;
72373;SDS011;60349;64.132;-21.820;2023-03-14T08:43:29;4.75;;;2.30;;
72373;SDS011;60349;64.132;-21.820;2023-03-14T08:45:58;6.18;;;2.63;;
72373;SDS011;60349;64.132;-21.820;2023-03-14T08:48:25;6.15;;;2.83;;
72373;SDS011;60349;64.132;-21.820;2023-03-14T08:50:51;3.65;;;2.25;;
72373;SDS011;60349;64.132;-21.820;2023-03-14T08:53:17;6.50;;;1.70;;
72373;SDS011;60349;64.132;-21.820;2023-03-14T08:55:43;5.60;;;2.30;;
72373;SDS011;60349;64.132;-21.820;2023-03-14T08:58:09;4.85;;;2.63;;
72373;SDS011;60349;64.132;-21.820;2023-03-14T09:00:35;6.20;;;1.98;;
72373;SDS011;60349;64.132;-21.820;2023-03-14T09:03:02;4.22;;;1.98;;
72373;SDS011;60349;64.132;-21.820;2023-03-14T09:05:28;5.18;;;2.40;;
72373;SDS011;60349;64.132;-21.820;2023-03-14T09:07:54;5.78;;;2.47;;
72373;SDS011;60349;64.132;-21.820;2023-03-14T09:10:20;3.63;;;1.95;;
72373;SDS011;60349;64.132;-21.820;2023-03-14T09:12:46;12.45;;;2.42;;
72373;SDS011;60349;64.132;-21.820;2023-03-14T09:15:12;6.00;;;2.60;;
72373;SDS011;60349;64.132;-21.820;2023-03-14T09:17:38;4.57;;;1.90;;
72373;SDS011;60349;64.132;-21.820;2023-03-14T09:20:04;5.25;;;2.45;;
72373;SDS011;60349;64.132;-21.820;2023-03-14T09:22:32;5.50;;;2.42;;
72373;SDS011;60349;64.132;-21.820;2023-03-14T09:25:00;5.78;;;2.47;;
72373;SDS011;60349;64.132;-21.820;2023-03-14T09:27:26;5.55;;;2.55;;
72373;SDS011;60349;64.132;-21.820;2023-03-14T09:29:52;5.05;;;3.00;;
72373;SDS011;60349;64.132;-21.820;2023-03-14T09:32:18;4.43;;;2.20;;
72373;SDS011;60349;64.132;-21.820;2023-03-14T09:34:44;6.18;;;2.00;;
72373;SDS011;60349;64.132;-21.820;2023-03-14T09:37:11;4.95;;;2.30;;
72373;SDS011;60349;64.132;-21.820;2023-03-14T09:39:37;3.97;;;1.83;;
72373;SDS011;60349;64.132;-21.820;2023-03-14T09:42:04;4.65;;;1.58;;
72373;SDS011;60349;64.132;-21.820;2023-03-14T09:44:32;4.47;;;2.00;;
72373;SDS011;60349;64.132;-21.820;2023-03-14T09:47:05;2.83;;;1.50;;
72373;SDS011;60349;64.132;-21.820;2023-03-14T09:49:41;6.70;;;1.95;;
72373;SDS011;60349;64.132;-21.820;2023-03-14T09:52:12;3.53;;;1.55;;
72373;SDS011;60349;64.132;-21.820;2023-03-14T09:54:40;2.85;;;1.70;;
72373;SDS011;60349;64.132;-21.820;2023-03-14T09:57:11;4.60;;;2.30;;
72373;SDS011;60349;64.132;-21.820;2023-03-14T09:59:38;5.55;;;1.92;;
72373;SDS011;60349;64.132;-21.820;2023-03-14T10:02:11;4.50;;;2.25;;
72373;SDS011;60349;64.132;-21.820;2023-03-14T10:04:39;12.13;;;2.00;;
72373;SDS011;60349;64.132;-21.820;2023-03-14T10:07:11;5.15;;;1.90;;
72373;SDS011;60349;64.132;-21.820;2023-03-14T10:09:39;9.30;;;2.15;;
72373;SDS011;60349;64.132;-21.820;2023-03-14T10:12:07;6.88;;;2.20;;
72373;SDS011;60349;64.132;-21.820;2023-03-14T10:14:35;8.23;;;2.45;;
72373;SDS011;60349;64.132;-21.820;2023-03-14T10:17:06;10.43;;;3.30;;
72373;SDS011;60349;64.132;-21.820;2023-03-14T10:19:33;6.95;;;3.30;;
72373;SDS011;60349;64.132;-21.820;2023-03-14T10:22:01;5.60;;;3.22;;
72373;SDS011;60349;64.132;-21.820;2023-03-14T10:24:28;8.70;;;3.92;;
72373;SDS011;60349;64.132;-21.820;2023-03-14T10:26:57;4.93;;;3.80;;
72373;SDS011;60349;64.132;-21.820;2023-03-14T10:29:26;5.13;;;3.75;;
72373;SDS011;60349;64.132;-21.820;2023-03-14T10:34:27;6.28;;;2.88;;
72373;SDS011;60349;64.132;-21.820;2023-03-14T10:36:58;4.57;;;2.72;;
72373;SDS011;60349;64.132;-21.820;2023-03-14T10:39:28;7.90;;;2.92;;
72373;SDS011;60349;64.132;-21.820;2023-03-14T10:42:01;2.95;;;2.17;;
72373;SDS011;60349;64.132;-21.820;2023-03-14T10:44:28;4.53;;;2.58;;
72373;SDS011;60349;64.132;-21.820;2023-03-14T10:47:00;6.43;;;3.25;;
72373;SDS011;60349;64.132;-21.820;2023-03-14T10:49:31;4.97;;;2.42;;
72373;SDS011;60349;64.132;-21.820;2023-03-14T10:54:58;5.25;;;3.00;;
72373;SDS011;60349;64.132;-21.820;2023-03-14T10:57:25;6.10;;;2.85;;
72373;SDS011;60349;64.132;-21.820;2023-03-14T10:59:51;4.93;;;3.42;;
72373;SDS011;60349;64.132;-21.820;2023-03-14T11:05:04;8.98;;;2.17;;
72373;SDS011;60349;64.132;-21.820;2023-03-14T11:15:51;1.25;;;0.30;;
72373;SDS011;60349;64.132;-21.820;2023-03-14T11:29:12;4.97;;;0.50;;
72373;SDS011;60349;64.132;-21.820;2023-03-14T11:31:40;2.45;;;0.88;;
72373;SDS011;60349;64.132;-21.820;2023-03-14T11:36:36;2.97;;;0.60;;
72373;SDS011;60349;64.132;-21.820;2023-03-14T11:39:03;3.05;;;1.05;;
72373;SDS011;60349;64.132;-21.820;2023-03-14T11:41:40;4.03;;;1.00;;
72373;SDS011;60349;64.132;-21.820;2023-03-14T11:44:14;2.20;;;0.85;;
72373;SDS011;60349;64.132;-21.820;2023-03-14T11:46:47;4.13;;;1.13;;
72373;SDS011;60349;64.132;-21.820;2023-03-14T11:51:54;4.63;;;0.90;;
72373;SDS011;60349;64.132;-21.820;2023-03-14T12:04:51;4.30;;;2.88;;
72373;SDS011;60349;64.132;-21.820;2023-03-14T12:07:21;4.90;;;2.80;;
72373;SDS011;60349;64.132;-21.820;2023-03-14T12:09:49;4.30;;;2.40;;
72373;SDS011;60349;64.132;-21.820;2023-03-14T12:12:18;3.15;;;2.00;;
72373;SDS011;60349;64.132;-21.820;2023-03-14T12:14:46;4.97;;;1.92;;
72373;SDS011;60349;64.132;-21.820;2023-03-14T12:17:19;4.18;;;2.42;;
72373;SDS011;60349;64.132;-21.820;2023-03-14T12:19:45;3.08;;;1.10;;
72373;SDS011;60349;64.132;-21.820;2023-03-14T12:22:28;7.45;;;2.75;;
72373;SDS011;60349;64.132;-21.820;2023-03-14T12:24:59;5.65;;;1.75;;
72373;SDS011;60349;64.132;-21.820;2023-03-14T12:35:36;7.18;;;1.20;;
72373;SDS011;60349;64.132;-21.820;2023-03-14T12:38:04;10.15;;;1.88;;
72373;SDS011;60349;64.132;-21.820;2023-03-14T12:40:34;2.60;;;0.77;;
72373;SDS011;60349;64.132;-21.820;2023-03-14T12:43:02;4.07;;;1.08;;
72373;SDS011;60349;64.132;-21.820;2023-03-14T12:45:30;2.90;;;0.50;;
72373;SDS011;60349;64.132;-21.820;2023-03-14T12:48:09;3.25;;;0.90;;
72373;SDS011;60349;64.132;-21.820;2023-03-14T12:50:43;3.20;;;0.47;;
72373;SDS011;60349;64.132;-21.820;2023-03-14T12:58:17;4.53;;;0.45;;
72373;SDS011;60349;64.132;-21.820;2023-03-14T13:00:45;1.58;;;0.45;;
72373;SDS011;60349;64.132;-21.820;2023-03-14T13:03:13;6.10;;;0.30;;
72373;SDS011;60349;64.132;-21.820;2023-03-14T13:08:43;4.65;;;0.40;;
72373;SDS011;60349;64.132;-21.820;2023-03-14T13:11:10;4.55;;;0.60;;
72373;SDS011;60349;64.132;-21.820;2023-03-14T13:13:41;5.72;;;0.47;;
72373;SDS011;60349;64.132;-21.820;2023-03-14T13:16:09;2.92;;;0.77;;
72373;SDS011;60349;64.132;-21.820;2023-03-14T13:18:37;3.80;;;0.50;;
72373;SDS011;60349;64.132;-21.820;2023-03-14T13:21:20;5.43;;;0.60;;
72373;SDS011;60349;64.132;-21.820;2023-03-14T13:23:57;5.63;;;1.50;;
72373;SDS011;60349;64.132;-21.820;2023-03-14T13:26:25;7.93;;;2.40;;
72373;SDS011;60349;64.132;-21.820;2023-03-14T13:28:57;4.68;;;1.58;;
72373;SDS011;60349;64.132;-21.820;2023-03-14T13:31:24;4.82;;;1.67;;
72373;SDS011;60349;64.132;-21.820;2023-03-14T13:34:00;12.93;;;2.35;;
72373;SDS011;60349;64.132;-21.820;2023-03-14T13:36:27;6.60;;;2.78;;
72373;SDS011;60349;64.132;-21.820;2023-03-14T13:38:58;5.53;;;0.80;;
72373;SDS011;60349;64.132;-21.820;2023-03-14T13:41:24;5.60;;;0.90;;
72373;SDS011;60349;64.132;-21.820;2023-03-14T13:43:51;3.50;;;0.57;;
72373;SDS011;60349;64.132;-21.820;2023-03-14T13:46:20;3.25;;;0.30;;
72373;SDS011;60349;64.132;-21.820;2023-03-14T13:51:43;3.28;;;0.50;;
72373;SDS011;60349;64.132;-21.820;2023-03-14T13:54:16;8.50;;;0.75;;
72373;SDS011;60349;64.132;-21.820;2023-03-14T13:56:43;5.03;;;0.43;;
72373;SDS011;60349;64.132;-21.820;2023-03-14T13:59:22;1.35;;;0.35;;
72373;SDS011;60349;64.132;-21.820;2023-03-14T14:01:49;3.65;;;0.60;;
72373;SDS011;60349;64.132;-21.820;2023-03-14T14:04:16;2.13;;;0.30;;
72373;SDS011;60349;64.132;-21.820;2023-03-14T14:06:47;2.63;;;0.30;;
72373;SDS011;60349;64.132;-21.820;2023-03-14T14:09:16;4.90;;;0.35;;
72373;SDS011;60349;64.132;-21.820;2023-03-14T14:11:43;7.40;;;0.20;;
72373;SDS011;60349;64.132;-21.820;2023-03-14T14:14:14;1.40;;;0.20;;
72373;SDS011;60349;64.132;-21.820;2023-03-14T14:16:41;1.38;;;0.20;;
72373;SDS011;60349;64.132;-21.820;2023-03-14T14:19:09;5.47;;;0.28;;
72373;SDS011;60349;64.132;-21.820;2023-03-14T14:21:35;2.60;;;0.30;;
72373;SDS011;60349;64.132;-21.820;2023-03-14T14:24:01;2.10;;;0.30;;
72373;SDS011;60349;64.132;-21.820;2023-03-14T14:26:27;2.10;;;0.35;;
72373;SDS011;60349;64.132;-21.820;2023-03-14T14:29:04;1.95;;;0.45;;
72373;SDS011;60349;64.132;-21.820;2023-03-14T14:31:30;0.90;;;0.13;;
72373;SDS011;60349;64.132;-21.820;2023-03-14T14:34:00;3.33;;;0.20;;
72373;SDS011;60349;64.132;-21.820;2023-03-14T14:39:03;4.00;;;0.10;;
72373;SDS011;60349;64.132;-21.820;2023-03-14T14:41:31;1.13;;;0.23;;
72373;SDS011;60349;64.132;-21.820;2023-03-14T14:43:57;1.00;;;0.10;;
72373;SDS011;60349;64.132;-21.820;2023-03-14T14:46:25;3.00;;;0.20;;
72373;SDS011;60349;64.132;-21.820;2023-03-14T14:48:54;3.05;;;0.10;;
72373;SDS011;60349;64.132;-21.820;2023-03-14T14:51:25;0.80;;;0.10;;
72373;SDS011;60349;64.132;-21.820;2023-03-14T14:54:00;0.65;;;0.10;;
72373;SDS011;60349;64.132;-21.820;2023-03-14T14:56:27;3.80;;;0.10;;
72373;SDS011;60349;64.132;-21.820;2023-03-14T14:59:00;1.45;;;0.10;;
72373;SDS011;60349;64.132;-21.820;2023-03-14T15:01:37;0.82;;;0.13;;
72373;SDS011;60349;64.132;-21.820;2023-03-14T15:04:09;2.42;;;0.10;;
72373;SDS011;60349;64.132;-21.820;2023-03-14T15:06:36;2.65;;;0.65;;
72373;SDS011;60349;64.132;-21.820;2023-03-14T15:09:02;2.08;;;0.10;;
72373;SDS011;60349;64.132;-21.820;2023-03-14T15:11:28;2.10;;;0.10;;
72373;SDS011;60349;64.132;-21.820;2023-03-14T15:13:54;1.77;;;0.10;;
72373;SDS011;60349;64.132;-21.820;2023-03-14T15:16:22;1.52;;;0.10;;
72373;SDS011;60349;64.132;-21.820;2023-03-14T15:18:53;0.85;;;0.15;;
72373;SDS011;60349;64.132;-21.820;2023-03-14T15:21:23;2.42;;;0.10;;
72373;SDS011;60349;64.132;-21.820;2023-03-14T15:23:50;0.93;;;0.10;;
72373;SDS011;60349;64.132;-21.820;2023-03-14T15:26:18;0.75;;;0.10;;
72373;SDS011;60349;64.132;-21.820;2023-03-14T15:28:44;1.38;;;0.15;;
72373;SDS011;60349;64.132;-21.820;2023-03-14T15:31:11;0.50;;;0.10;;
72373;SDS011;60349;64.132;-21.820;2023-03-14T15:33:38;1.13;;;0.10;;
72373;SDS011;60349;64.132;-21.820;2023-03-14T15:36:05;0.85;;;0.10;;
72373;SDS011;60349;64.132;-21.820;2023-03-14T15:38:32;2.50;;;0.20;;